Time;durP1;ratioP1;P1;durP2;ratioP2;P2;SDS_P1;SDS_P2;PMS_P1;PMS_P2;Temp;Humidity;BMP_temperature;BMP_pressure;BME280_temperature;BME280_humidity;BME280_pressure;Samples;Min_cycle;Max_cycle;Signal;HPM_P1;HPM_P2
2022/06/11 00:01:39;;;;;;;4.10;3.30;;;14.20;99.90;;;;;;5036414;28;20036;-82
2022/06/11 00:04:10;;;;;;;3.35;3.03;;;14.20;99.90;;;;;;5029247;28;20049;-81
2022/06/11 00:06:49;;;;;;;4.47;3.40;;;14.10;99.90;;;;;;5056407;28;20505;-82
2022/06/11 00:09:16;;;;;;;3.85;3.13;;;14.10;99.90;;;;;;5036621;28;20022;-82
2022/06/11 00:11:42;;;;;;;5.05;3.35;;;14.10;99.90;;;;;;5037427;28;20044;-82
2022/06/11 00:14:09;;;;;;;3.88;3.55;;;14.00;99.90;;;;;;5019942;28;20093;-82
2022/06/11 00:16:35;;;;;;;4.38;3.08;;;14.00;99.90;;;;;;5037240;28;20025;-83
2022/06/11 00:19:03;;;;;;;3.97;3.58;;;14.00;99.90;;;;;;5026108;28;20044;-83
2022/06/11 00:21:32;;;;;;;3.58;3.22;;;14.00;99.90;;;;;;5020184;28;20022;-82
2022/06/11 00:23:57;;;;;;;3.42;3.03;;;14.00;99.90;;;;;;5019512;28;20034;-82
2022/06/11 00:26:24;;;;;;;3.55;3.15;;;14.00;99.90;;;;;;5019342;28;20037;-81
2022/06/11 00:28:50;;;;;;;4.68;3.40;;;14.00;99.90;;;;;;5027185;28;20051;-82
2022/06/11 00:31:17;;;;;;;3.65;3.35;;;13.90;99.90;;;;;;5037402;28;20036;-83
2022/06/11 00:33:43;;;;;;;4.35;3.15;;;13.90;99.90;;;;;;5044817;28;20430;-83
2022/06/11 00:36:09;;;;;;;6.45;4.45;;;13.90;99.90;;;;;;5020796;28;20026;-82
2022/06/11 00:38:36;;;;;;;7.35;4.20;;;13.90;99.90;;;;;;5034923;28;20025;-81
2022/06/11 00:41:04;;;;;;;5.25;3.65;;;13.90;99.90;;;;;;5023443;28;20018;-81
2022/06/11 00:43:30;;;;;;;5.05;4.57;;;13.80;99.90;;;;;;5023677;28;20030;-81
2022/06/11 00:46:36;;;;;;;5.32;3.55;;;13.80;99.90;;;;;;5025412;28;20037;-81
2022/06/11 00:49:10;;;;;;;4.05;3.40;;;13.80;99.90;;;;;;5016786;28;20057;-82
2022/06/11 00:51:36;;;;;;;4.05;3.55;;;13.80;99.90;;;;;;5036070;28;20073;-82
2022/06/11 00:54:08;;;;;;;4.05;3.38;;;13.80;99.90;;;;;;5035230;28;20028;-81
2022/06/11 00:56:49;;;;;;;3.40;3.10;;;13.80;99.90;;;;;;5035020;28;20115;-82
2022/06/11 00:59:20;;;;;;;3.45;2.88;;;13.70;99.90;;;;;;5031988;28;20032;-82
2022/06/11 01:01:47;;;;;;;4.20;2.65;;;13.70;99.90;;;;;;5027270;28;20033;-82
2022/06/11 01:04:34;;;;;;;4.28;2.42;;;13.70;99.90;;;;;;5047627;28;20017;-82
2022/06/11 01:07:13;;;;;;;3.33;2.92;;;13.60;99.90;;;;;;5055739;28;20103;-82
2022/06/11 01:10:01;;;;;;;3.05;2.72;;;13.60;99.90;;;;;;5047333;28;20475;-83
2022/06/11 01:12:42;;;;;;;3.60;2.95;;;13.60;99.90;;;;;;5024078;28;20076;-83
2022/06/11 01:15:13;;;;;;;2.75;2.55;;;13.50;99.90;;;;;;5015901;28;20033;-82
2022/06/11 01:18:11;;;;;;;2.58;2.38;;;13.50;99.90;;;;;;5015391;28;20022;-81
2022/06/11 01:20:41;;;;;;;2.88;2.38;;;13.50;99.90;;;;;;5007480;28;20025;-81
2022/06/11 01:23:18;;;;;;;3.15;2.85;;;13.40;99.90;;;;;;5035757;28;20044;-82
2022/06/11 01:25:53;;;;;;;2.58;2.38;;;13.40;99.90;;;;;;5035831;28;20045;-82
2022/06/11 01:29:13;;;;;;;2.92;2.65;;;13.40;99.90;;;;;;5035870;28;20041;-82
2022/06/11 01:31:51;;;;;;;3.38;3.00;;;13.40;99.90;;;;;;4987715;28;20045;-82
2022/06/11 01:34:41;;;;;;;3.55;3.00;;;13.40;99.90;;;;;;5050136;28;20056;-82
2022/06/11 01:37:13;;;;;;;3.33;2.83;;;13.30;99.90;;;;;;5059383;28;20032;-82
2022/06/11 01:39:49;;;;;;;4.03;3.40;;;13.30;99.90;;;;;;5035436;28;20060;-81
2022/06/11 01:42:18;;;;;;;3.10;2.80;;;13.30;99.90;;;;;;5019145;28;20088;-81
2022/06/11 01:44:44;;;;;;;3.25;2.95;;;13.30;99.90;;;;;;5001144;28;20022;-81
2022/06/11 01:47:14;;;;;;;2.60;2.40;;;13.20;99.90;;;;;;5001296;28;20028;-82
2022/06/11 01:49:46;;;;;;;2.75;2.55;;;13.20;99.90;;;;;;5019008;28;20426;-81
2022/06/11 01:52:24;;;;;;;3.03;2.83;;;13.20;99.90;;;;;;5017970;28;20025;-81
2022/06/11 01:55:07;;;;;;;2.75;2.40;;;13.20;99.90;;;;;;5019605;28;20344;-81
2022/06/11 01:57:34;;;;;;;2.88;2.65;;;13.20;99.90;;;;;;5000758;28;20026;-81
2022/06/11 02:00:11;;;;;;;3.03;2.55;;;13.20;99.90;;;;;;5001030;28;20037;-82
2022/06/11 02:03:14;;;;;;;2.60;2.40;;;13.20;99.90;;;;;;5040459;28;20036;-82
2022/06/11 02:05:51;;;;;;;3.13;2.90;;;13.20;99.90;;;;;;5056722;28;20029;-82
2022/06/11 02:08:32;;;;;;;2.97;2.78;;;13.10;99.90;;;;;;5054803;28;20444;-83
2022/06/11 02:11:26;;;;;;;3.10;2.72;;;13.10;99.90;;;;;;4983162;28;20033;-83
2022/06/11 02:14:24;;;;;;;3.45;2.90;;;13.10;99.90;;;;;;4972215;28;20018;-82
2022/06/11 02:16:57;;;;;;;3.28;2.75;;;13.00;99.90;;;;;;5008701;28;20052;-82
2022/06/11 02:19:29;;;;;;;2.85;2.63;;;13.00;99.90;;;;;;5022394;28;20033;-82
2022/06/11 02:22:01;;;;;;;3.05;2.75;;;13.00;99.90;;;;;;5018655;28;20029;-82
2022/06/11 02:24:35;;;;;;;2.78;2.58;;;13.00;99.90;;;;;;5036354;28;20470;-81
2022/06/11 02:27:05;;;;;;;2.50;2.30;;;13.00;99.90;;;;;;5037894;28;20482;-83
2022/06/11 02:29:33;;;;;;;2.97;2.67;;;12.90;99.90;;;;;;5041005;28;20536;-80
2022/06/11 02:32:08;;;;;;;2.88;2.65;;;13.00;99.90;;;;;;5031641;28;20028;-81
2022/06/11 02:34:38;;;;;;;3.17;2.60;;;12.90;99.90;;;;;;5053312;28;20017;-81
2022/06/11 02:37:24;;;;;;;2.70;2.50;;;12.90;99.90;;;;;;5059466;28;20047;-81
2022/06/11 02:39:53;;;;;;;2.55;2.35;;;12.90;99.90;;;;;;5034913;28;20021;-82
2022/06/11 02:42:21;;;;;;;2.60;2.40;;;12.90;99.90;;;;;;5020411;28;20034;-81
2022/06/11 02:44:47;;;;;;;2.30;2.20;;;12.90;99.90;;;;;;5021708;28;20029;-81
2022/06/11 02:47:14;;;;;;;3.47;2.83;;;12.90;99.90;;;;;;5039386;28;20040;-82
2022/06/11 02:49:40;;;;;;;3.00;2.65;;;12.90;99.90;;;;;;5039207;28;20490;-82
2022/06/11 02:52:14;;;;;;;2.85;2.30;;;12.90;99.90;;;;;;5038205;28;20045;-82
2022/06/11 02:54:41;;;;;;;3.10;2.83;;;12.80;99.90;;;;;;5019678;28;20041;-82
2022/06/11 02:57:09;;;;;;;3.25;2.10;;;12.80;99.90;;;;;;5038273;28;20017;-83
2022/06/11 02:59:35;;;;;;;2.72;2.53;;;12.80;99.90;;;;;;5020865;28;20129;-83
2022/06/11 03:02:01;;;;;;;2.85;2.65;;;12.80;99.90;;;;;;5042827;28;20036;-81
2022/06/11 03:04:29;;;;;;;3.13;2.88;;;12.70;99.90;;;;;;5038418;28;20096;-81
2022/06/11 03:06:55;;;;;;;3.13;2.67;;;12.80;99.90;;;;;;5059621;28;20025;-82
2022/06/11 03:09:32;;;;;;;2.90;2.65;;;12.80;99.90;;;;;;5058333;28;20024;-82
2022/06/11 03:12:00;;;;;;;2.65;2.45;;;12.80;99.90;;;;;;5024050;28;20482;-82
2022/06/11 03:14:26;;;;;;;2.92;2.60;;;12.80;99.90;;;;;;5019921;28;20479;-81
2022/06/11 03:16:52;;;;;;;2.47;2.28;;;12.80;99.90;;;;;;5019951;28;20036;-82
2022/06/11 03:19:20;;;;;;;3.25;2.67;;;12.80;99.90;;;;;;5038598;28;20068;-82
2022/06/11 03:21:51;;;;;;;3.55;2.92;;;12.80;99.90;;;;;;5020282;28;20036;-82
2022/06/11 03:24:17;;;;;;;2.90;2.60;;;12.80;99.90;;;;;;5038661;28;20026;-82
2022/06/11 03:26:46;;;;;;;3.10;2.35;;;12.70;99.90;;;;;;5021020;28;20026;-82
2022/06/11 03:29:13;;;;;;;4.18;2.60;;;12.80;99.90;;;;;;5023783;28;20062;-82
2022/06/11 03:31:38;;;;;;;2.90;2.70;;;12.70;99.90;;;;;;5039966;28;20024;-82
2022/06/11 03:34:04;;;;;;;2.83;2.63;;;12.70;99.90;;;;;;5042301;28;20017;-83
2022/06/11 03:36:30;;;;;;;2.95;2.58;;;12.70;99.90;;;;;;5048581;28;20037;-83
2022/06/11 03:38:56;;;;;;;3.42;2.35;;;12.70;99.90;;;;;;5048404;28;20079;-82
2022/06/11 03:41:23;;;;;;;2.97;2.70;;;12.70;99.90;;;;;;5048174;28;20032;-83
2022/06/11 03:43:50;;;;;;;3.00;2.70;;;12.70;99.90;;;;;;5048768;28;20018;-82
2022/06/11 03:46:17;;;;;;;2.60;2.40;;;12.80;99.90;;;;;;5032056;28;20043;-82
2022/06/11 03:48:43;;;;;;;2.55;2.35;;;12.80;99.90;;;;;;5031779;28;20071;-82
2022/06/11 03:51:10;;;;;;;2.75;2.50;;;12.80;99.90;;;;;;5026077;28;20021;-83
2022/06/11 03:53:37;;;;;;;2.92;2.67;;;12.80;99.90;;;;;;5049130;28;20017;-83
2022/06/11 03:56:05;;;;;;;3.25;2.92;;;12.80;99.90;;;;;;5047565;28;20433;-82
2022/06/11 03:58:32;;;;;;;3.08;2.78;;;12.80;99.90;;;;;;5049281;28;20022;-83
2022/06/11 04:01:16;;;;;;;3.10;2.90;;;12.80;99.90;;;;;;5049652;28;20627;-83
2022/06/11 04:04:09;;;;;;;2.80;2.60;;;12.90;99.90;;;;;;5060091;28;20138;-81
2022/06/11 04:06:38;;;;;;;3.53;3.20;;;12.90;99.90;;;;;;5065403;28;20044;-82
2022/06/11 04:09:08;;;;;;;3.45;2.72;;;13.00;99.90;;;;;;5066902;28;20028;-82
2022/06/11 04:11:34;;;;;;;2.78;2.55;;;13.00;99.90;;;;;;5055192;28;20053;-82
2022/06/11 04:14:00;;;;;;;2.50;2.30;;;13.00;99.90;;;;;;5030645;28;20561;-82
2022/06/11 04:16:35;;;;;;;3.45;2.78;;;13.10;99.90;;;;;;5018036;28;20060;-82
2022/06/11 04:19:06;;;;;;;2.92;2.70;;;13.10;99.90;;;;;;5022310;28;20067;-81
2022/06/11 04:21:37;;;;;;;2.92;2.70;;;13.20;99.90;;;;;;5047625;28;20125;-82
2022/06/11 04:24:05;;;;;;;3.03;2.70;;;13.20;99.90;;;;;;5044601;28;20129;-83
2022/06/11 04:26:40;;;;;;;3.00;2.80;;;13.30;99.90;;;;;;5055064;28;20105;-82
2022/06/11 04:29:09;;;;;;;2.50;2.30;;;13.40;99.90;;;;;;5039795;28;20027;-81
2022/06/11 04:31:36;;;;;;;2.60;2.40;;;13.50;99.90;;;;;;5054538;28;20017;-83
2022/06/11 04:34:02;;;;;;;2.88;2.63;;;13.70;99.90;;;;;;5048608;28;20029;-82
2022/06/11 04:36:30;;;;;;;2.72;2.53;;;13.80;99.90;;;;;;5021857;28;20049;-82
2022/06/11 04:38:56;;;;;;;2.90;2.40;;;13.90;99.90;;;;;;5021192;28;20033;-82
2022/06/11 04:41:23;;;;;;;4.15;3.10;;;13.90;99.90;;;;;;5037377;28;20025;-82
2022/06/11 04:43:49;;;;;;;3.22;2.92;;;13.90;99.90;;;;;;5035532;28;20029;-81
2022/06/11 04:46:16;;;;;;;3.30;2.97;;;13.90;99.90;;;;;;5037024;28;20134;-81
2022/06/11 04:48:42;;;;;;;2.63;2.42;;;14.00;99.90;;;;;;5040955;28;20059;-83
2022/06/11 04:51:09;;;;;;;2.55;2.35;;;14.10;99.90;;;;;;5037587;28;20029;-82
2022/06/11 04:53:35;;;;;;;2.50;2.30;;;14.10;99.90;;;;;;5022697;28;20018;-81
2022/06/11 04:56:01;;;;;;;2.50;2.30;;;14.20;99.90;;;;;;5022008;28;20044;-81
2022/06/11 04:58:26;;;;;;;2.90;2.60;;;14.30;99.90;;;;;;5003297;28;20029;-82
2022/06/11 05:00:53;;;;;;;3.03;2.72;;;14.40;99.90;;;;;;5022040;28;20086;-82
2022/06/11 05:03:19;;;;;;;2.70;2.50;;;14.50;99.90;;;;;;5033855;28;20044;-81
2022/06/11 05:05:45;;;;;;;2.25;2.15;;;14.60;99.90;;;;;;5045819;28;20022;-82
2022/06/11 05:08:13;;;;;;;2.50;2.30;;;15.90;99.90;;;;;;5046995;28;20032;-82
2022/06/11 05:10:39;;;;;;;2.08;1.92;;;19.00;97.00;;;;;;5029601;28;20025;-82
2022/06/11 05:13:06;;;;;;;1.33;1.33;;;22.90;87.30;;;;;;5047828;28;20057;-82
2022/06/11 05:15:33;;;;;;;1.45;1.38;;;26.00;71.90;;;;;;5040588;28;20513;-83
2022/06/11 05:17:59;;;;;;;1.27;1.17;;;28.60;61.70;;;;;;5029664;28;20491;-83
2022/06/11 05:20:25;;;;;;;1.10;1.10;;;30.30;54.30;;;;;;5028445;28;20141;-83
2022/06/11 05:22:51;;;;;;;1.05;1.05;;;31.50;50.90;;;;;;5027291;28;20026;-82
2022/06/11 05:25:18;;;;;;;1.10;1.00;;;32.40;48.20;;;;;;5031584;28;20081;-82
2022/06/11 05:27:46;;;;;;;3.88;1.60;;;33.20;46.10;;;;;;5047694;28;20026;-82
2022/06/11 05:30:15;;;;;;;1.85;1.20;;;33.30;44.20;;;;;;5047106;28;20032;-82
2022/06/11 05:32:42;;;;;;;1.20;1.20;;;33.60;43.60;;;;;;5050144;28;20029;-82
2022/06/11 05:35:11;;;;;;;2.03;1.40;;;33.90;43.30;;;;;;5052136;28;20482;-83
2022/06/11 05:37:38;;;;;;;1.00;1.00;;;34.20;42.30;;;;;;5029566;28;20168;-83
2022/06/11 05:40:06;;;;;;;1.30;1.30;;;34.40;41.60;;;;;;5027922;28;20053;-83
2022/06/11 05:42:32;;;;;;;1.00;1.00;;;34.50;41.50;;;;;;5046691;28;20056;-83
2022/06/11 05:44:58;;;;;;;1.50;1.40;;;34.90;41.00;;;;;;5044933;28;20025;-82
2022/06/11 05:47:26;;;;;;;1.35;1.35;;;35.00;41.00;;;;;;5027331;28;20056;-81
2022/06/11 05:49:56;;;;;;;1.60;1.50;;;35.40;40.40;;;;;;5023560;28;20029;-82
2022/06/11 05:52:30;;;;;;;1.63;1.52;;;35.80;39.80;;;;;;5023775;28;20029;-82
2022/06/11 05:54:56;;;;;;;2.00;1.90;;;36.10;39.00;;;;;;5023362;28;20022;-81
2022/06/11 05:57:25;;;;;;;1.88;1.70;;;36.20;38.80;;;;;;5025323;28;20026;-82
2022/06/11 06:00:02;;;;;;;1.63;1.58;;;36.20;38.70;;;;;;5024331;28;20049;-82
2022/06/11 06:02:28;;;;;;;1.50;1.45;;;36.20;39.00;;;;;;5029489;28;20032;-81
2022/06/11 06:04:55;;;;;;;1.40;1.38;;;36.50;38.80;;;;;;5058650;28;20081;-81
2022/06/11 06:07:20;;;;;;;1.20;1.20;;;36.80;38.20;;;;;;5049879;28;20026;-82
2022/06/11 06:09:47;;;;;;;1.45;1.35;;;36.50;38.10;;;;;;5006837;28;20053;-81
2022/06/11 06:12:14;;;;;;;1.42;1.42;;;36.50;38.20;;;;;;5023628;28;20432;-81
2022/06/11 06:14:40;;;;;;;1.27;1.25;;;36.60;37.80;;;;;;5022185;28;20022;-81
2022/06/11 06:17:06;;;;;;;1.13;1.13;;;36.60;38.10;;;;;;5009714;28;20032;-81
2022/06/11 06:19:31;;;;;;;1.38;1.38;;;36.70;38.00;;;;;;5022742;28;20022;-82
2022/06/11 06:21:57;;;;;;;3.30;1.63;;;36.90;38.10;;;;;;5021783;28;20030;-81
2022/06/11 06:24:23;;;;;;;1.50;1.40;;;36.70;37.70;;;;;;5021479;28;20077;-81
2022/06/11 06:26:48;;;;;;;1.55;1.45;;;36.60;37.70;;;;;;5038945;28;20068;-81
2022/06/11 06:29:14;;;;;;;1.10;1.10;;;36.80;37.70;;;;;;5041539;28;20481;-82
2022/06/11 06:31:39;;;;;;;1.10;1.10;;;37.00;37.60;;;;;;5027509;28;20106;-82
2022/06/11 06:34:05;;;;;;;1.08;1.08;;;37.40;37.10;;;;;;5054567;28;20047;-82
2022/06/11 06:36:32;;;;;;;1.60;1.50;;;37.60;36.80;;;;;;5035635;28;20037;-82
2022/06/11 06:38:58;;;;;;;1.30;1.30;;;37.70;36.60;;;;;;5018595;28;20026;-83
2022/06/11 06:41:24;;;;;;;1.70;1.60;;;37.50;36.40;;;;;;5029115;28;20030;-83
2022/06/11 06:43:50;;;;;;;1.50;1.40;;;37.60;36.40;;;;;;5027301;28;20056;-82
2022/06/11 06:46:19;;;;;;;1.55;1.48;;;37.40;36.30;;;;;;5034347;28;20061;-82
2022/06/11 06:48:45;;;;;;;1.20;1.20;;;37.50;36.30;;;;;;5049243;28;20024;-81
2022/06/11 06:51:12;;;;;;;1.38;1.30;;;37.60;36.20;;;;;;5045659;28;20018;-82
2022/06/11 06:53:40;;;;;;;1.30;1.30;;;37.70;35.60;;;;;;5046834;28;20025;-82
2022/06/11 06:56:06;;;;;;;1.42;1.33;;;37.40;35.90;;;;;;5044986;28;20077;-82
2022/06/11 06:58:33;;;;;;;1.17;1.17;;;36.90;36.20;;;;;;5026027;28;20030;-82
2022/06/11 07:00:59;;;;;;;1.15;1.15;;;36.90;36.40;;;;;;5010608;28;20030;-83
2022/06/11 07:03:25;;;;;;;1.38;1.30;;;37.20;36.90;;;;;;5067866;22;20049;-84
2022/06/11 07:05:50;;;;;;;2.08;1.20;;;37.50;36.10;;;;;;5050108;28;20021;-84
2022/06/11 07:08:17;;;;;;;1.20;1.20;;;37.70;35.90;;;;;;5057502;28;20029;-84
2022/06/11 07:10:48;;;;;;;1.48;1.38;;;37.90;35.70;;;;;;5058308;28;20061;-84
2022/06/11 07:13:15;;;;;;;1.30;1.20;;;37.50;35.50;;;;;;5059005;28;20020;-84
2022/06/11 07:15:42;;;;;;;1.40;1.30;;;37.20;35.90;;;;;;5067268;28;20021;-85
2022/06/11 07:18:16;;;;;;;1.27;1.27;;;36.60;35.70;;;;;;5040915;28;20025;-84
2022/06/11 07:20:46;;;;;;;1.25;1.20;;;34.80;36.10;;;;;;5060133;28;20013;-84
2022/06/11 07:23:40;;;;;;;1.10;1.10;;;31.70;39.00;;;;;;5059172;28;20129;-84
2022/06/11 07:26:18;;;;;;;2.35;1.40;;;28.40;42.60;;;;;;5041201;28;20025;-84
2022/06/11 07:28:49;;;;;;;1.27;1.17;;;25.90;46.80;;;;;;5045209;28;20039;-83
2022/06/11 07:31:15;;;;;;;2.50;1.40;;;24.00;50.40;;;;;;5061040;28;20461;-83
2022/06/11 07:33:43;;;;;;;1.40;1.30;;;22.80;53.50;;;;;;5050555;28;20984;-83
2022/06/11 07:36:10;;;;;;;1.60;1.50;;;22.20;56.00;;;;;;5056595;28;20032;-84
2022/06/11 07:38:36;;;;;;;2.38;1.67;;;21.80;56.70;;;;;;5049996;28;20024;-84
2022/06/11 07:41:03;;;;;;;1.50;1.40;;;21.60;57.70;;;;;;5062912;28;20085;-84
2022/06/11 07:43:29;;;;;;;1.95;1.77;;;21.30;58.40;;;;;;5059920;28;20537;-84
2022/06/11 07:45:55;;;;;;;2.40;1.70;;;21.20;59.20;;;;;;5051605;28;20028;-84
2022/06/11 07:48:21;;;;;;;2.53;1.60;;;21.20;59.50;;;;;;5070358;28;20050;-84
2022/06/11 07:50:50;;;;;;;1.88;1.77;;;21.10;59.90;;;;;;5058782;28;20033;-84
2022/06/11 07:53:18;;;;;;;1.67;1.58;;;21.00;59.70;;;;;;5046278;28;20021;-84
2022/06/11 07:55:46;;;;;;;1.92;1.77;;;20.90;60.10;;;;;;5067742;28;20031;-85
2022/06/11 07:58:14;;;;;;;2.55;2.25;;;20.80;60.20;;;;;;5061084;28;20033;-84
2022/06/11 08:00:50;;;;;;;2.63;2.00;;;20.90;60.10;;;;;;5070816;28;20068;-83
2022/06/11 08:03:18;;;;;;;2.28;1.77;;;20.90;60.40;;;;;;5068919;28;20111;-83
2022/06/11 08:05:45;;;;;;;2.75;1.58;;;21.00;59.70;;;;;;5062536;28;20025;-84
2022/06/11 08:08:11;;;;;;;1.45;1.40;;;21.10;59.10;;;;;;5061951;28;20025;-84
2022/06/11 08:10:39;;;;;;;1.70;1.60;;;21.20;59.20;;;;;;5042422;28;20117;-84
2022/06/11 08:13:05;;;;;;;3.10;1.98;;;21.20;58.30;;;;;;5060494;28;20023;-83
2022/06/11 08:15:31;;;;;;;3.60;1.90;;;21.30;58.70;;;;;;5041731;28;20035;-84
2022/06/11 08:17:57;;;;;;;4.32;2.53;;;21.40;58.10;;;;;;5041354;28;20176;-84
2022/06/11 08:20:27;;;;;;;3.42;2.25;;;21.40;58.40;;;;;;5043705;28;20033;-84
2022/06/11 08:22:53;;;;;;;2.13;1.67;;;21.40;58.50;;;;;;5062051;28;20035;-85
2022/06/11 08:25:20;;;;;;;1.85;1.30;;;21.50;58.20;;;;;;5060480;28;20040;-85
2022/06/11 08:27:45;;;;;;;3.47;1.63;;;21.70;57.60;;;;;;5041636;28;20036;-84
2022/06/11 08:30:18;;;;;;;2.20;1.38;;;21.70;56.80;;;;;;5059911;28;20372;-83
2022/06/11 08:32:44;;;;;;;2.38;1.27;;;21.70;56.60;;;;;;5073632;28;20032;-84
2022/06/11 08:35:11;;;;;;;1.50;1.40;;;21.80;56.60;;;;;;5082136;28;20032;-83
2022/06/11 08:37:37;;;;;;;7.18;2.13;;;22.00;56.10;;;;;;5094167;28;20062;-83
2022/06/11 08:40:06;;;;;;;1.88;1.60;;;22.00;55.70;;;;;;5076927;28;20107;-83
2022/06/11 08:42:39;;;;;;;2.13;1.70;;;21.90;56.40;;;;;;5060518;28;20025;-83
2022/06/11 08:45:19;;;;;;;2.05;1.63;;;21.90;57.50;;;;;;5060861;28;20051;-84
2022/06/11 08:47:49;;;;;;;2.10;1.85;;;22.00;56.80;;;;;;5060781;28;20025;-83
2022/06/11 08:50:19;;;;;;;2.35;1.60;;;22.10;56.60;;;;;;5059772;28;20052;-84
2022/06/11 08:52:46;;;;;;;1.40;1.30;;;22.30;55.80;;;;;;5060022;28;20082;-83
2022/06/11 08:55:11;;;;;;;1.25;1.15;;;22.60;55.00;;;;;;5045412;28;20059;-83
2022/06/11 08:57:59;;;;;;;1.27;1.25;;;22.80;54.40;;;;;;5069501;28;20025;-83
2022/06/11 09:00:50;;;;;;;1.40;1.08;;;23.00;53.70;;;;;;5070306;28;20032;-83
2022/06/11 09:03:46;;;;;;;2.17;1.33;;;23.20;53.30;;;;;;5061016;28;20048;-84
2022/06/11 09:06:35;;;;;;;1.27;1.17;;;23.30;53.00;;;;;;5057638;28;20090;-83
2022/06/11 09:09:19;;;;;;;2.38;1.83;;;23.30;53.90;;;;;;5080632;28;20020;-83
2022/06/11 09:12:08;;;;;;;3.20;1.77;;;23.40;54.20;;;;;;5051588;28;20127;-84
2022/06/11 09:14:46;;;;;;;1.83;1.52;;;23.20;53.20;;;;;;5022149;28;20047;-83
2022/06/11 09:17:26;;;;;;;3.72;1.65;;;23.20;52.50;;;;;;5073488;28;20025;-83
2022/06/11 09:20:10;;;;;;;2.05;1.38;;;23.10;52.60;;;;;;5044633;28;20029;-84
2022/06/11 09:23:27;;;;;;;2.03;1.38;;;22.90;53.10;;;;;;5061896;28;20037;-84
2022/06/11 09:26:16;;;;;;;1.42;1.33;;;23.10;52.90;;;;;;5035779;28;20111;-85
2022/06/11 09:29:01;;;;;;;2.20;1.50;;;23.50;52.40;;;;;;5049523;28;20044;-84
2022/06/11 09:31:50;;;;;;;1.50;1.40;;;24.10;51.30;;;;;;5062436;28;20029;-84
2022/06/11 09:34:49;;;;;;;1.60;1.42;;;24.50;50.30;;;;;;5068006;28;20018;-84
2022/06/11 09:37:41;;;;;;;1.70;1.60;;;24.60;49.90;;;;;;5040840;28;20033;-85
2022/06/11 09:40:30;;;;;;;1.83;1.60;;;24.80;49.60;;;;;;5024663;28;20029;-85
2022/06/11 09:43:01;;;;;;;1.55;1.45;;;25.00;49.20;;;;;;5036199;28;20061;-85
2022/06/11 09:45:39;;;;;;;2.70;2.13;;;25.40;48.80;;;;;;5060447;28;20083;-85
2022/06/11 09:49:06;;;;;;;3.22;1.85;;;25.60;48.80;;;;;;5060908;28;20036;-85
2022/06/11 09:52:05;;;;;;;1.92;1.52;;;25.50;49.00;;;;;;4988865;28;20030;-84
2022/06/11 09:54:59;;;;;;;6.00;1.70;;;25.30;49.90;;;;;;5046019;28;20025;-85
2022/06/11 09:57:34;;;;;;;1.42;1.38;;;25.30;47.90;;;;;;5029662;28;20036;-84
2022/06/11 10:00:15;;;;;;;1.55;1.45;;;25.10;47.90;;;;;;5041089;28;20386;-84
2022/06/11 10:03:12;;;;;;;1.30;1.20;;;24.70;48.70;;;;;;5040812;28;20420;-84
2022/06/11 10:05:55;;;;;;;2.10;1.20;;;24.50;49.60;;;;;;5071215;28;20013;-84
2022/06/11 10:08:38;;;;;;;1.70;1.20;;;24.50;49.40;;;;;;5049536;28;20025;-84
2022/06/11 10:11:20;;;;;;;1.17;1.17;;;24.30;49.60;;;;;;5060003;28;20008;-84
2022/06/11 10:13:54;;;;;;;1.33;1.33;;;24.00;50.40;;;;;;5056518;28;20104;-85
2022/06/11 10:16:32;;;;;;;1.60;1.50;;;23.80;50.90;;;;;;5064852;28;20025;-85
2022/06/11 10:19:17;;;;;;;1.52;1.42;;;23.70;51.00;;;;;;5048102;28;20017;-84
2022/06/11 10:21:54;;;;;;;1.55;1.40;;;23.80;51.50;;;;;;5063020;28;20125;-84
2022/06/11 10:24:22;;;;;;;1.45;1.35;;;24.00;51.10;;;;;;5062343;28;20059;-84
2022/06/11 10:26:56;;;;;;;2.35;1.98;;;24.10;50.60;;;;;;5044296;28;20026;-84
2022/06/11 10:29:36;;;;;;;3.63;1.98;;;24.10;50.10;;;;;;5061694;28;20096;-84
2022/06/11 10:32:13;;;;;;;2.90;1.73;;;24.20;50.00;;;;;;5043061;28;20043;-84
2022/06/11 10:34:44;;;;;;;2.25;1.65;;;24.40;49.70;;;;;;5058522;28;20043;-84
2022/06/11 10:37:23;;;;;;;2.20;1.35;;;24.80;49.50;;;;;;5060660;28;20048;-84
2022/06/11 10:39:52;;;;;;;1.60;1.50;;;25.60;48.60;;;;;;5062532;28;20068;-84
2022/06/11 10:42:27;;;;;;;3.50;1.60;;;26.30;47.20;;;;;;5059998;28;20024;-85
2022/06/11 10:44:54;;;;;;;3.17;1.42;;;26.80;46.20;;;;;;5060172;28;20036;-84
2022/06/11 10:47:36;;;;;;;1.42;1.33;;;27.40;45.60;;;;;;5060020;28;20116;-84
2022/06/11 10:50:11;;;;;;;;;;;27.90;44.60;;;;;;5063939;28;20013;-84
2022/06/11 10:52:48;;;;;;;1.58;1.48;;;28.40;43.60;;;;;;5044665;28;19935;-84
2022/06/11 10:55:30;;;;;;;1.80;1.65;;;28.80;43.00;;;;;;5044082;28;20021;-84
2022/06/11 10:58:01;;;;;;;1.48;1.30;;;29.00;42.40;;;;;;5060883;28;20029;-84
2022/06/11 11:00:35;;;;;;;1.42;1.33;;;28.90;41.90;;;;;;5061796;28;20029;-84
2022/06/11 11:03:06;;;;;;;2.78;1.50;;;28.60;42.40;;;;;;5065725;28;20028;-84
2022/06/11 11:06:00;;;;;;;2.60;1.50;;;28.30;41.80;;;;;;5083307;28;20067;-84
2022/06/11 11:08:26;;;;;;;1.83;1.63;;;28.00;42.60;;;;;;5088468;28;20085;-85
2022/06/11 11:10:54;;;;;;;2.15;1.95;;;28.10;43.00;;;;;;5096521;28;20255;-83
2022/06/11 11:13:30;;;;;;;2.60;1.48;;;28.00;42.60;;;;;;5052994;28;20037;-84
2022/06/11 11:16:21;;;;;;;1.70;1.60;;;27.60;42.60;;;;;;5040261;28;20039;-83
2022/06/11 11:19:11;;;;;;;1.60;1.50;;;27.30;43.10;;;;;;5057732;28;20070;-84
2022/06/11 11:21:57;;;;;;;1.92;1.73;;;27.40;43.80;;;;;;5058901;28;20053;-83
2022/06/11 11:24:30;;;;;;;1.85;1.50;;;27.60;43.30;;;;;;5057806;28;20040;-84
2022/06/11 11:27:00;;;;;;;1.75;1.40;;;27.40;43.30;;;;;;5041085;28;20087;-84
2022/06/11 11:29:39;;;;;;;1.60;1.23;;;27.30;43.40;;;;;;5058273;28;20046;-84
2022/06/11 11:32:24;;;;;;;2.03;1.30;;;27.20;43.80;;;;;;5067075;28;20308;-84
2022/06/11 11:34:50;;;;;;;1.40;1.30;;;27.40;43.80;;;;;;5049901;28;20108;-84
2022/06/11 11:37:16;;;;;;;3.05;1.15;;;27.30;43.90;;;;;;5081491;28;20056;-85
2022/06/11 11:39:53;;;;;;;1.48;1.38;;;27.40;43.70;;;;;;5086738;28;20058;-85
2022/06/11 11:42:23;;;;;;;2.03;1.65;;;26.90;43.70;;;;;;5082299;28;20071;-85
2022/06/11 11:44:51;;;;;;;2.70;1.85;;;26.40;44.10;;;;;;5070715;28;20275;-84
2022/06/11 11:47:24;;;;;;;1.80;1.70;;;26.00;45.30;;;;;;5061220;28;20466;-84
2022/06/11 11:49:57;;;;;;;2.10;1.23;;;25.80;45.00;;;;;;5065853;28;20346;-84
2022/06/11 11:52:24;;;;;;;4.18;1.40;;;25.60;45.50;;;;;;5062448;28;20044;-84
2022/06/11 11:55:11;;;;;;;1.58;1.48;;;25.50;45.10;;;;;;5061750;28;20017;-84
2022/06/11 11:57:38;;;;;;;1.48;1.30;;;25.40;45.80;;;;;;5043451;28;20025;-84
2022/06/11 12:00:28;;;;;;;1.60;1.25;;;25.60;45.90;;;;;;5064659;28;20093;-84
2022/06/11 12:03:05;;;;;;;3.13;1.48;;;26.40;44.80;;;;;;5062759;28;20089;-83
2022/06/11 12:05:39;;;;;;;2.30;1.50;;;26.80;44.20;;;;;;5081237;28;20028;-83
2022/06/11 12:08:16;;;;;;;2.17;1.58;;;26.80;43.80;;;;;;5087248;28;20044;-84
2022/06/11 12:10:49;;;;;;;1.58;1.48;;;26.70;44.10;;;;;;5064224;28;20048;-84
2022/06/11 12:13:42;;;;;;;2.10;1.70;;;26.40;44.10;;;;;;5081089;28;20017;-84
2022/06/11 12:16:21;;;;;;;2.33;1.20;;;26.40;44.80;;;;;;5060342;28;20052;-84
2022/06/11 12:19:02;;;;;;;1.67;1.50;;;27.00;44.20;;;;;;5046404;28;20033;-84
2022/06/11 12:21:34;;;;;;;4.37;1.50;;;27.80;42.60;;;;;;5068506;28;20084;-84
2022/06/11 12:24:02;;;;;;;1.48;1.10;;;28.30;41.70;;;;;;5068285;28;20040;-84
2022/06/11 12:26:34;;;;;;;2.00;1.38;;;28.00;41.30;;;;;;5067685;28;20037;-83
2022/06/11 12:29:05;;;;;;;1.60;1.50;;;27.30;42.50;;;;;;5068357;28;20028;-84
2022/06/11 12:31:32;;;;;;;1.70;1.60;;;26.70;43.60;;;;;;5069520;28;20025;-84
2022/06/11 12:33:59;;;;;;;2.33;1.48;;;26.40;44.80;;;;;;5079828;28;20085;-84
2022/06/11 12:36:55;;;;;;;2.90;1.35;;;26.50;45.20;;;;;;5079032;28;20040;-83
2022/06/11 12:39:29;;;;;;;1.23;1.23;;;26.30;44.90;;;;;;5068825;28;20020;-83
2022/06/11 12:42:13;;;;;;;1.42;1.27;;;26.40;45.40;;;;;;5051129;28;20029;-83
2022/06/11 12:44:46;;;;;;;2.08;1.20;;;26.60;44.70;;;;;;5068952;28;20029;-82
2022/06/11 12:47:15;;;;;;;3.05;1.45;;;26.80;44.50;;;;;;5069492;28;20060;-82
2022/06/11 12:49:56;;;;;;;3.92;1.35;;;26.90;44.60;;;;;;5052238;28;20093;-82
2022/06/11 12:52:47;;;;;;;1.20;1.10;;;27.00;44.00;;;;;;5051641;28;20092;-83
2022/06/11 12:55:45;;;;;;;2.20;1.70;;;27.20;43.90;;;;;;5064810;28;20024;-83
2022/06/11 12:58:23;;;;;;;1.75;1.65;;;27.10;43.30;;;;;;5048319;28;20026;-82
2022/06/11 13:00:56;;;;;;;1.33;1.23;;;27.40;43.30;;;;;;5051233;28;20021;-82
2022/06/11 13:03:53;;;;;;;1.35;1.30;;;27.60;42.50;;;;;;5057572;22;20053;-80
2022/06/11 13:06:31;;;;;;;1.73;1.55;;;27.50;43.00;;;;;;5063889;28;20069;-81
2022/06/11 13:09:38;;;;;;;1.40;1.33;;;27.10;43.30;;;;;;5055814;28;20055;-81
2022/06/11 13:12:26;;;;;;;2.17;1.25;;;27.20;43.90;;;;;;5056416;28;20021;-81
2022/06/11 13:15:09;;;;;;;2.13;1.20;;;27.80;42.70;;;;;;5025459;28;20080;-81
2022/06/11 13:17:59;;;;;;;1.40;1.30;;;28.50;42.00;;;;;;5017741;28;20057;-81
2022/06/11 13:20:49;;;;;;;2.03;1.70;;;28.50;41.10;;;;;;5027989;28;20037;-81